Time;durP1;ratioP1;P1;durP2;ratioP2;P2;SDS_P1;SDS_P2;PMS_P1;PMS_P2;Temp;Humidity;BMP_temperature;BMP_pressure;BME280_temperature;BME280_humidity;BME280_pressure;Samples;Min_cycle;Max_cycle;Signal;HPM_P1;HPM_P2
2023/12/11 00:01:59;;;;;;;20.25;3.70;;;8.90;99.90;;;;;;5078825;28;20033;-85
2023/12/11 00:04:25;;;;;;;16.63;3.03;;;9.00;99.90;;;;;;5076749;28;20036;-85
2023/12/11 00:06:52;;;;;;;29.10;4.32;;;9.00;99.90;;;;;;5070083;28;20044;-85
2023/12/11 00:09:19;;;;;;;22.08;3.42;;;9.00;99.90;;;;;;5070287;28;20094;-85
2023/12/11 00:11:45;;;;;;;22.48;2.92;;;9.00;99.90;;;;;;5077007;28;20040;-84
2023/12/11 00:14:12;;;;;;;21.65;3.63;;;8.90;99.90;;;;;;5090892;28;20051;-85
2023/12/11 00:16:39;;;;;;;26.73;3.00;;;8.90;99.90;;;;;;5070835;28;20115;-84
2023/12/11 00:19:05;;;;;;;29.45;3.38;;;8.90;99.90;;;;;;5071069;28;20033;-85
2023/12/11 00:21:32;;;;;;;26.23;3.35;;;8.80;99.90;;;;;;5070578;28;20045;-85
2023/12/11 00:23:59;;;;;;;24.83;4.15;;;8.80;99.90;;;;;;5070718;28;20045;-85
2023/12/11 00:26:26;;;;;;;32.83;8.93;;;8.80;99.90;;;;;;5083536;28;20047;-84
2023/12/11 00:28:52;;;;;;;35.72;10.45;;;8.70;99.90;;;;;;5069890;28;20810;-85
2023/12/11 00:31:19;;;;;;;46.30;10.23;;;8.70;99.90;;;;;;5065219;28;20079;-85
2023/12/11 00:33:46;;;;;;;37.25;9.15;;;8.60;99.90;;;;;;5069646;28;20553;-85
2023/12/11 00:36:13;;;;;;;55.97;10.93;;;8.60;99.90;;;;;;5059990;28;20500;-85
2023/12/11 00:38:39;;;;;;;38.13;6.90;;;8.50;99.90;;;;;;5066795;28;20029;-85
2023/12/11 00:41:07;;;;;;;25.85;4.50;;;8.50;99.90;;;;;;5059490;28;20072;-85
2023/12/11 00:43:34;;;;;;;29.13;3.63;;;8.40;99.90;;;;;;5080243;28;20051;-85
2023/12/11 00:46:00;;;;;;;29.10;3.72;;;8.40;99.90;;;;;;5085466;28;20377;-85
2023/12/11 00:48:27;;;;;;;31.20;3.65;;;8.40;99.90;;;;;;5069888;28;20075;-85
2023/12/11 00:50:54;;;;;;;32.10;4.95;;;8.40;99.90;;;;;;5079434;28;20044;-85
2023/12/11 00:53:20;;;;;;;36.20;4.60;;;8.30;99.90;;;;;;5076804;28;20049;-84
2023/12/11 00:55:47;;;;;;;31.35;5.05;;;8.30;99.90;;;;;;5070115;28;20043;-84
2023/12/11 00:58:14;;;;;;;35.55;7.22;;;8.30;99.90;;;;;;5064768;28;20041;-84
2023/12/11 01:00:41;;;;;;;35.80;9.52;;;8.30;99.90;;;;;;5062499;28;20075;-85
2023/12/11 01:03:07;;;;;;;43.65;8.50;;;8.30;99.90;;;;;;5069950;28;20481;-84
2023/12/11 01:05:34;;;;;;;40.25;7.10;;;8.30;99.90;;;;;;5069769;28;20045;-84
2023/12/11 01:08:01;;;;;;;33.20;4.53;;;8.30;99.90;;;;;;5086749;28;20037;-85
2023/12/11 01:10:27;;;;;;;36.28;6.18;;;8.20;99.90;;;;;;5057409;28;20033;-85
2023/12/11 01:12:54;;;;;;;29.00;3.78;;;8.30;99.90;;;;;;5087353;28;20029;-85
2023/12/11 01:15:21;;;;;;;28.92;4.30;;;8.30;99.90;;;;;;5079699;28;20036;-84
2023/12/11 01:17:48;;;;;;;34.28;4.78;;;8.20;99.90;;;;;;5073640;28;20074;-85
2023/12/11 01:20:14;;;;;;;31.25;4.05;;;8.20;99.90;;;;;;5070494;28;20068;-84
2023/12/11 01:22:41;;;;;;;31.27;3.88;;;8.20;99.90;;;;;;5068623;28;20047;-85
2023/12/11 01:25:08;;;;;;;30.50;4.13;;;8.10;99.90;;;;;;5073899;28;20124;-85
2023/12/11 01:27:35;;;;;;;27.75;4.82;;;8.10;99.90;;;;;;5085211;28;20400;-84
2023/12/11 01:30:02;;;;;;;32.58;4.75;;;8.10;99.90;;;;;;5073502;28;20060;-84
2023/12/11 01:32:29;;;;;;;27.10;4.00;;;8.10;99.90;;;;;;5073657;28;20107;-84
2023/12/11 01:34:56;;;;;;;37.75;4.00;;;8.10;99.90;;;;;;5073466;28;20566;-84
2023/12/11 01:37:23;;;;;;;26.67;3.67;;;8.10;99.90;;;;;;5090323;28;20033;-84
2023/12/11 01:39:50;;;;;;;37.60;4.35;;;8.10;99.90;;;;;;5084354;28;20058;-84
2023/12/11 01:42:17;;;;;;;29.00;4.18;;;8.20;99.90;;;;;;5073091;28;20060;-85
2023/12/11 01:44:43;;;;;;;26.52;3.78;;;8.20;99.90;;;;;;5073631;28;20396;-84
2023/12/11 01:47:10;;;;;;;40.47;4.28;;;8.20;99.90;;;;;;5073908;28;20037;-84
2023/12/11 01:49:38;;;;;;;27.73;4.03;;;8.20;99.90;;;;;;5073487;28;20071;-85
2023/12/11 01:52:07;;;;;;;38.40;5.05;;;8.20;99.90;;;;;;5073153;28;20087;-84
2023/12/11 01:54:37;;;;;;;41.13;5.43;;;8.20;99.90;;;;;;5086515;28;20483;-84
2023/12/11 01:57:05;;;;;;;31.75;4.22;;;8.20;99.90;;;;;;5077463;28;20044;-84
2023/12/11 01:59:32;;;;;;;35.30;3.70;;;8.20;99.90;;;;;;5072649;28;20028;-84
2023/12/11 02:01:59;;;;;;;31.60;3.25;;;8.20;99.90;;;;;;5074100;28;20035;-84
2023/12/11 02:04:26;;;;;;;29.17;3.58;;;8.10;99.90;;;;;;5072757;28;20094;-84
2023/12/11 02:06:53;;;;;;;34.42;3.97;;;8.20;99.90;;;;;;5075309;28;20044;-84
2023/12/11 02:09:19;;;;;;;29.52;3.92;;;8.10;99.90;;;;;;5073413;28;20056;-84
2023/12/11 02:11:46;;;;;;;37.13;4.13;;;8.10;99.90;;;;;;5086910;28;20037;-84
2023/12/11 02:14:13;;;;;;;31.02;5.07;;;8.20;99.90;;;;;;5068489;28;20037;-84
2023/12/11 02:16:40;;;;;;;30.30;4.13;;;8.20;99.90;;;;;;5070539;28;20122;-84
2023/12/11 02:19:07;;;;;;;27.67;3.72;;;8.20;99.90;;;;;;5084684;28;20127;-84
2023/12/11 02:21:33;;;;;;;26.80;3.60;;;8.20;99.90;;;;;;5085659;28;20112;-84
2023/12/11 02:24:15;;;;;;;27.90;3.35;;;8.20;99.90;;;;;;5073044;28;20040;-84
2023/12/11 02:26:42;;;;;;;30.33;3.78;;;8.20;99.90;;;;;;5072758;28;20041;-84
2023/12/11 02:29:09;;;;;;;36.58;3.78;;;8.30;99.90;;;;;;5073796;28;20447;-84
2023/12/11 02:31:36;;;;;;;30.77;4.03;;;8.30;99.90;;;;;;5089248;28;20094;-84
2023/12/11 02:34:03;;;;;;;27.52;3.38;;;8.30;99.90;;;;;;5072338;28;20051;-84
2023/12/11 02:36:29;;;;;;;28.52;3.85;;;8.40;99.90;;;;;;5072481;28;20036;-84
2023/12/11 02:38:56;;;;;;;40.72;3.90;;;8.40;99.90;;;;;;5072407;28;20798;-85
2023/12/11 02:41:23;;;;;;;28.35;4.10;;;8.30;99.90;;;;;;5082490;28;20496;-84
2023/12/11 02:43:50;;;;;;;31.52;3.58;;;8.40;99.90;;;;;;5059300;28;20048;-85
2023/12/11 02:46:16;;;;;;;32.75;5.25;;;8.40;99.90;;;;;;5062880;28;20048;-84
2023/12/11 02:48:43;;;;;;;38.35;4.47;;;8.40;99.90;;;;;;5055376;28;20041;-84
2023/12/11 02:51:10;;;;;;;29.30;3.92;;;8.40;99.90;;;;;;5063133;28;20041;-84
2023/12/11 02:53:36;;;;;;;29.73;4.65;;;8.50;99.90;;;;;;5063695;28;20135;-84
2023/12/11 02:56:03;;;;;;;30.88;4.57;;;8.40;99.90;;;;;;5075724;28;20079;-84
2023/12/11 02:58:30;;;;;;;39.20;4.70;;;8.50;99.90;;;;;;5077458;28;20037;-84
2023/12/11 03:00:57;;;;;;;26.73;3.55;;;8.50;99.90;;;;;;5093603;28;20063;-84
2023/12/11 03:03:23;;;;;;;34.42;4.35;;;8.50;99.90;;;;;;5059124;28;20162;-84
2023/12/11 03:05:51;;;;;;;36.92;4.60;;;8.50;99.90;;;;;;5072001;28;20041;-84
2023/12/11 03:08:17;;;;;;;28.95;3.65;;;8.50;99.90;;;;;;5078416;28;20039;-84
2023/12/11 03:10:44;;;;;;;27.88;4.72;;;8.40;99.90;;;;;;5079039;28;20037;-84
2023/12/11 03:13:11;;;;;;;37.80;4.82;;;8.40;99.90;;;;;;5070885;28;20041;-84
2023/12/11 03:15:37;;;;;;;34.08;4.05;;;8.40;99.90;;;;;;5063835;28;20116;-84
2023/12/11 03:18:04;;;;;;;30.98;4.07;;;8.50;99.90;;;;;;5061978;28;20135;-84
2023/12/11 03:20:31;;;;;;;36.58;4.30;;;8.40;99.90;;;;;;5081530;28;20052;-84
2023/12/11 03:22:58;;;;;;;46.60;5.43;;;8.50;99.90;;;;;;5071821;28;20075;-84
2023/12/11 03:25:24;;;;;;;32.20;4.70;;;8.50;99.90;;;;;;5071790;28;20087;-84
2023/12/11 03:27:51;;;;;;;31.88;4.47;;;8.50;99.90;;;;;;5084757;28;20103;-84
2023/12/11 03:30:18;;;;;;;39.95;5.68;;;8.50;99.90;;;;;;5071255;28;20447;-84
2023/12/11 03:32:44;;;;;;;36.55;5.35;;;8.50;99.90;;;;;;5071172;28;20063;-84
2023/12/11 03:35:11;;;;;;;33.75;4.40;;;8.50;99.90;;;;;;5083510;28;20484;-84
2023/12/11 03:37:38;;;;;;;36.50;4.88;;;8.50;99.90;;;;;;5079447;28;20473;-84
2023/12/11 03:40:05;;;;;;;37.25;4.68;;;8.60;99.90;;;;;;5070737;28;20041;-84
2023/12/11 03:42:32;;;;;;;38.40;4.68;;;8.60;99.90;;;;;;5071966;28;20142;-85
2023/12/11 03:44:58;;;;;;;42.78;4.75;;;8.60;99.90;;;;;;5087743;28;20049;-85
2023/12/11 03:47:25;;;;;;;36.83;4.80;;;8.60;99.90;;;;;;5088187;28;20043;-84
2023/12/11 03:49:53;;;;;;;29.60;4.85;;;8.60;99.90;;;;;;5084524;28;20070;-84
2023/12/11 03:52:20;;;;;;;45.17;6.13;;;8.60;99.90;;;;;;5080696;28;20038;-83
2023/12/11 03:54:47;;;;;;;34.20;4.63;;;8.60;99.90;;;;;;5066941;28;20052;-84
2023/12/11 03:57:14;;;;;;;42.78;5.10;;;8.60;99.90;;;;;;5066602;28;20040;-84
2023/12/11 03:59:40;;;;;;;46.85;6.00;;;8.60;99.90;;;;;;5072625;28;20497;-85
2023/12/11 04:02:07;;;;;;;33.38;4.47;;;8.70;99.90;;;;;;5071093;28;20060;-84
2023/12/11 04:04:34;;;;;;;38.65;4.50;;;8.70;99.90;;;;;;5084434;28;20098;-84
2023/12/11 04:07:00;;;;;;;37.13;5.15;;;8.70;99.90;;;;;;5071178;28;20049;-84
2023/12/11 04:09:27;;;;;;;38.50;5.53;;;8.70;99.90;;;;;;5057948;28;20103;-84
2023/12/11 04:11:54;;;;;;;41.08;5.03;;;8.70;99.90;;;;;;5073014;28;20037;-84
2023/12/11 04:14:21;;;;;;;43.80;5.70;;;8.70;99.90;;;;;;5085109;28;20032;-84
2023/12/11 04:16:47;;;;;;;26.40;4.13;;;8.70;99.90;;;;;;5099811;28;20040;-84
2023/12/11 04:19:14;;;;;;;42.05;5.70;;;8.70;99.90;;;;;;5068927;28;20083;-84
2023/12/11 04:21:41;;;;;;;29.13;4.90;;;8.70;99.90;;;;;;5083661;28;20110;-84
2023/12/11 04:24:07;;;;;;;36.28;4.90;;;8.70;99.90;;;;;;5064797;28;20381;-85
2023/12/11 04:26:34;;;;;;;46.25;5.95;;;8.70;99.90;;;;;;5069998;28;20033;-84
2023/12/11 04:29:01;;;;;;;41.78;5.07;;;8.70;99.90;;;;;;5070253;28;20586;-84
2023/12/11 04:31:28;;;;;;;31.92;4.85;;;8.70;99.90;;;;;;5070441;28;20036;-85
2023/12/11 04:33:54;;;;;;;39.28;5.10;;;8.70;99.90;;;;;;5078347;28;20041;-84
2023/12/11 04:36:21;;;;;;;27.02;4.50;;;8.70;99.90;;;;;;5066260;28;20032;-84
2023/12/11 04:38:48;;;;;;;30.40;4.88;;;8.70;99.90;;;;;;5083811;28;20068;-85
2023/12/11 04:41:15;;;;;;;32.80;4.75;;;8.70;99.90;;;;;;5086228;28;20094;-85
2023/12/11 04:43:43;;;;;;;37.20;4.85;;;8.80;99.90;;;;;;5065053;28;20046;-85
2023/12/11 04:46:09;;;;;;;28.02;4.18;;;8.80;99.90;;;;;;5086696;28;20865;-85
2023/12/11 04:48:36;;;;;;;36.42;4.93;;;8.80;99.90;;;;;;5070192;28;20133;-84
2023/12/11 04:51:04;;;;;;;38.15;4.82;;;8.80;99.90;;;;;;5060816;28;20048;-84
2023/12/11 04:53:30;;;;;;;34.08;4.03;;;8.80;99.90;;;;;;5100151;28;20045;-84
2023/12/11 04:55:57;;;;;;;47.00;4.97;;;8.70;99.90;;;;;;5070308;28;20090;-84
2023/12/11 04:58:24;;;;;;;35.28;4.60;;;8.70;99.90;;;;;;5056773;28;20080;-84
2023/12/11 05:00:50;;;;;;;39.38;5.13;;;8.70;99.90;;;;;;5059100;28;20037;-85
2023/12/11 05:03:17;;;;;;;35.13;4.22;;;8.70;99.90;;;;;;5072417;28;20041;-84
2023/12/11 05:05:44;;;;;;;37.63;4.85;;;8.70;99.90;;;;;;5070134;28;20048;-84
2023/12/11 05:08:10;;;;;;;39.00;4.43;;;8.70;99.90;;;;;;5083837;28;20048;-84
2023/12/11 05:10:37;;;;;;;32.97;4.70;;;8.70;99.90;;;;;;5069599;28;20041;-85
2023/12/11 05:13:04;;;;;;;38.47;4.63;;;8.70;99.90;;;;;;5067471;28;20035;-84
2023/12/11 05:15:30;;;;;;;40.58;4.07;;;8.70;99.90;;;;;;5069956;28;20504;-85
2023/12/11 05:17:57;;;;;;;29.92;4.40;;;8.70;99.90;;;;;;5069642;28;20080;-84
2023/12/11 05:20:24;;;;;;;32.58;4.18;;;8.70;99.90;;;;;;5069217;28;20892;-84
2023/12/11 05:22:51;;;;;;;30.63;4.78;;;8.70;99.90;;;;;;5066954;28;20489;-84
2023/12/11 05:25:19;;;;;;;38.03;4.40;;;8.70;99.90;;;;;;5069810;28;20120;-84
2023/12/11 05:27:45;;;;;;;43.30;5.05;;;8.70;99.90;;;;;;5069870;28;20048;-84
2023/12/11 05:30:12;;;;;;;37.38;4.53;;;8.70;99.90;;;;;;5057310;28;20053;-85
2023/12/11 05:32:39;;;;;;;30.42;4.40;;;8.70;99.90;;;;;;5069851;28;20041;-85
2023/12/11 05:35:06;;;;;;;30.40;4.47;;;8.70;99.90;;;;;;5078787;28;20073;-84
2023/12/11 05:37:33;;;;;;;39.65;5.18;;;8.70;99.90;;;;;;5064947;28;20040;-84
2023/12/11 05:40:00;;;;;;;27.77;4.07;;;8.70;99.90;;;;;;5078787;28;20032;-84
2023/12/11 05:42:27;;;;;;;37.88;4.32;;;8.70;99.90;;;;;;5063285;28;20091;-84
2023/12/11 05:44:53;;;;;;;39.63;5.35;;;8.70;99.90;;;;;;5080365;28;20397;-84
2023/12/11 05:47:20;;;;;;;30.27;4.45;;;8.80;99.90;;;;;;5056701;28;20094;-84
2023/12/11 05:49:47;;;;;;;35.53;3.92;;;8.60;99.90;;;;;;5075631;28;20033;-84
2023/12/11 05:52:13;;;;;;;29.17;3.78;;;8.70;99.90;;;;;;5073098;28;20041;-84
2023/12/11 05:54:40;;;;;;;37.45;4.25;;;8.70;99.90;;;;;;5069672;28;20068;-84
2023/12/11 05:57:07;;;;;;;37.75;4.60;;;8.60;99.90;;;;;;5079687;28;20032;-84
2023/12/11 05:59:33;;;;;;;35.10;4.53;;;8.60;99.90;;;;;;5069094;28;20091;-85
2023/12/11 06:02:00;;;;;;;30.98;4.18;;;8.60;99.90;;;;;;5069330;28;20067;-85
2023/12/11 06:04:27;;;;;;;34.30;4.28;;;8.60;99.90;;;;;;5071324;28;20560;-85
2023/12/11 06:06:53;;;;;;;28.45;3.83;;;8.60;99.90;;;;;;5073290;28;20044;-85
2023/12/11 06:09:20;;;;;;;29.63;4.63;;;8.60;99.90;;;;;;5073013;28;20041;-85
2023/12/11 06:11:47;;;;;;;37.78;4.38;;;8.60;99.90;;;;;;5085693;28;20503;-85
2023/12/11 06:14:13;;;;;;;31.77;3.92;;;8.60;99.90;;;;;;5066080;28;20087;-85
2023/12/11 06:16:41;;;;;;;34.25;4.03;;;8.60;99.90;;;;;;5084587;28;20116;-85
2023/12/11 06:19:07;;;;;;;33.50;4.28;;;8.60;99.90;;;;;;5077493;28;20038;-84
2023/12/11 06:21:34;;;;;;;36.75;4.90;;;8.60;99.90;;;;;;5077586;28;20044;-85
2023/12/11 06:24:01;;;;;;;26.77;3.50;;;8.60;99.90;;;;;;5084219;28;20497;-85
2023/12/11 06:26:31;;;;;;;34.53;4.13;;;8.70;99.90;;;;;;5072145;28;20188;-85
2023/12/11 06:29:01;;;;;;;37.17;4.35;;;8.60;99.90;;;;;;5059481;28;20397;-85
2023/12/11 06:31:29;;;;;;;31.13;4.10;;;8.60;99.90;;;;;;5073753;28;20095;-85
2023/12/11 06:33:56;;;;;;;27.10;4.18;;;8.60;99.90;;;;;;5078117;28;20044;-85
2023/12/11 06:36:25;;;;;;;28.15;4.00;;;8.60;99.90;;;;;;5064406;28;20042;-84
2023/12/11 06:38:52;;;;;;;34.08;3.83;;;8.70;99.90;;;;;;5038781;28;20486;-85
2023/12/11 06:41:19;;;;;;;28.58;3.97;;;8.60;99.90;;;;;;5072466;28;20040;-84
2023/12/11 06:43:52;;;;;;;21.90;3.67;;;8.60;99.90;;;;;;5072213;28;20053;-85
2023/12/11 06:46:20;;;;;;;30.83;3.65;;;8.70;99.90;;;;;;5072689;28;20044;-84
2023/12/11 06:48:47;;;;;;;31.80;3.40;;;8.60;99.90;;;;;;5085852;28;20045;-84
2023/12/11 06:51:16;;;;;;;24.90;3.53;;;8.60;99.90;;;;;;5068191;28;20033;-85
2023/12/11 06:53:43;;;;;;;36.08;4.38;;;8.60;99.90;;;;;;5077654;28;20086;-84
2023/12/11 06:56:18;;;;;;;35.67;4.18;;;8.60;99.90;;;;;;5079713;28;20071;-85
2023/12/11 06:58:45;;;;;;;31.05;4.18;;;8.60;99.90;;;;;;5072419;28;20037;-85
2023/12/11 07:01:13;;;;;;;25.58;4.20;;;8.60;99.90;;;;;;5071003;28;20110;-85
2023/12/11 07:03:40;;;;;;;33.08;3.75;;;8.60;99.90;;;;;;5052293;28;20046;-84
2023/12/11 07:06:08;;;;;;;32.88;3.55;;;8.60;99.90;;;;;;5077615;28;20369;-85
2023/12/11 07:08:36;;;;;;;25.83;3.65;;;8.60;99.90;;;;;;5082895;28;20045;-85
2023/12/11 07:11:03;;;;;;;27.95;3.22;;;8.60;99.90;;;;;;5088531;28;20041;-85
2023/12/11 07:13:30;;;;;;;21.25;3.10;;;8.60;99.90;;;;;;5084474;28;20041;-84
2023/12/11 07:15:56;;;;;;;29.65;4.32;;;8.60;99.90;;;;;;5072109;28;20500;-84
2023/12/11 07:18:23;;;;;;;18.50;3.13;;;8.60;99.90;;;;;;5077871;28;20123;-84
2023/12/11 07:20:50;;;;;;;20.15;3.08;;;8.70;99.90;;;;;;5079540;28;20120;-85
2023/12/11 07:23:17;;;;;;;26.45;3.60;;;8.70;99.90;;;;;;5080354;28;20066;-85
2023/12/11 07:25:45;;;;;;;26.20;3.15;;;8.60;99.90;;;;;;5074089;28;20049;-85
2023/12/11 07:28:11;;;;;;;24.20;2.85;;;8.70;99.90;;;;;;5064919;28;20043;-85
2023/12/11 07:30:38;;;;;;;25.55;3.85;;;8.70;99.90;;;;;;5059514;28;20127;-84
2023/12/11 07:33:05;;;;;;;25.88;3.28;;;8.60;99.90;;;;;;5084623;28;20098;-83
2023/12/11 07:35:31;;;;;;;20.48;3.53;;;8.60;99.90;;;;;;5066810;28;20037;-84
2023/12/11 07:37:58;;;;;;;33.78;4.40;;;8.60;99.90;;;;;;5066505;28;20033;-84
2023/12/11 07:40:25;;;;;;;26.67;3.90;;;8.60;99.90;;;;;;5068640;28;20047;-85
2023/12/11 07:42:52;;;;;;;26.60;3.45;;;8.60;99.90;;;;;;5067278;28;20037;-84
2023/12/11 07:45:19;;;;;;;25.65;4.55;;;8.60;99.90;;;;;;5085932;28;20390;-84
2023/12/11 07:47:45;;;;;;;28.55;3.53;;;8.60;99.90;;;;;;5062371;28;20044;-84
2023/12/11 07:50:12;;;;;;;32.42;3.58;;;8.60;99.90;;;;;;5062353;28;20041;-84
2023/12/11 07:52:39;;;;;;;30.40;3.53;;;8.60;99.90;;;;;;5082701;28;20041;-84
2023/12/11 07:55:06;;;;;;;32.47;2.92;;;8.60;99.90;;;;;;5072868;28;20048;-84
2023/12/11 07:57:32;;;;;;;36.45;4.07;;;8.60;99.90;;;;;;5078665;28;20155;-84
2023/12/11 08:00:00;;;;;;;32.20;3.70;;;8.60;99.90;;;;;;5066716;28;20038;-84
2023/12/11 08:02:26;;;;;;;25.08;3.17;;;8.60;99.90;;;;;;5080417;28;20112;-85
2023/12/11 08:04:53;;;;;;;23.15;3.65;;;8.60;99.90;;;;;;5062099;28;20830;-84
2023/12/11 08:07:20;;;;;;;26.95;4.78;;;8.60;99.90;;;;;;5071181;28;20029;-85
2023/12/11 08:09:47;;;;;;;28.92;5.95;;;8.60;99.90;;;;;;5080775;28;20043;-85
2023/12/11 08:12:17;;;;;;;32.83;5.25;;;8.60;99.90;;;;;;5066679;28;20488;-86
2023/12/11 08:14:45;;;;;;;28.70;4.80;;;8.60;99.90;;;;;;5072734;28;23320;-91
2023/12/11 08:17:12;;;;;;;25.17;6.45;;;8.60;99.90;;;;;;5079176;28;20048;-89
2023/12/11 08:19:39;;;;;;;23.33;5.57;;;8.60;99.90;;;;;;5079868;28;20473;-90
2023/12/11 08:22:06;;;;;;;27.50;5.70;;;8.60;99.90;;;;;;5070401;28;20045;-90
2023/12/11 08:24:32;;;;;;;27.70;5.70;;;8.10;99.90;;;;;;5060536;28;20041;-90
2023/12/11 08:26:59;;;;;;;30.55;4.88;;;8.60;99.90;;;;;;5067179;28;20056;-90
2023/12/11 08:29:26;;;;;;;19.17;3.63;;;8.60;99.90;;;;;;5074596;28;20053;-88
2023/12/11 08:31:53;;;;;;;30.10;6.25;;;8.60;99.90;;;;;;5068086;28;20044;-90
2023/12/11 08:34:20;;;;;;;27.23;5.05;;;8.50;99.90;;;;;;5063365;28;20033;-89
2023/12/11 08:36:47;;;;;;;22.40;4.97;;;8.60;99.90;;;;;;5073922;28;20041;-90
2023/12/11 08:39:14;;;;;;;23.92;5.00;;;8.60;99.90;;;;;;5068084;28;20037;-88
2023/12/11 08:41:40;;;;;;;25.20;4.43;;;8.60;99.90;;;;;;5058402;28;20033;-89
2023/12/11 08:44:07;;;;;;;33.92;4.50;;;8.60;99.90;;;;;;5067595;28;20037;-92
2023/12/11 08:46:35;;;;;;;23.85;3.60;;;8.60;99.90;;;;;;5081375;28;20040;-89
2023/12/11 08:49:02;;;;;;;25.50;4.18;;;8.60;99.90;;;;;;5068864;28;20063;-87
2023/12/11 08:51:29;;;;;;;25.63;5.18;;;8.60;99.90;;;;;;5070578;28;20037;-88
2023/12/11 08:53:56;;;;;;;26.45;5.63;;;8.70;99.90;;;;;;5070434;28;20151;-89
2023/12/11 08:56:23;;;;;;;18.08;3.35;;;8.60;99.90;;;;;;5071204;28;20098;-91
2023/12/11 08:58:51;;;;;;;24.90;3.38;;;8.60;99.90;;;;;;5070061;28;20033;-91
2023/12/11 09:01:18;;;;;;;20.58;3.90;;;8.60;99.90;;;;;;5070993;28;20465;-91
2023/12/11 09:03:46;;;;;;;26.70;3.90;;;8.60;99.90;;;;;;5064932;28;20111;-91
2023/12/11 09:06:15;;;;;;;17.77;4.65;;;8.60;99.90;;;;;;5063959;28;20036;-91
2023/12/11 09:08:42;;;;;;;24.42;3.92;;;8.60;99.90;;;;;;5069698;28;20045;-91
2023/12/11 09:11:09;;;;;;;19.50;5.57;;;8.60;99.90;;;;;;5071693;28;20044;-90
2023/12/11 09:13:36;;;;;;;13.90;2.90;;;8.60;99.90;;;;;;5074654;28;20044;-90
2023/12/11 09:16:03;;;;;;;21.38;3.42;;;8.70;99.90;;;;;;5064412;28;20681;-90
2023/12/11 09:18:30;;;;;;;15.48;3.85;;;8.70;99.90;;;;;;5062275;28;20037;-89
2023/12/11 09:20:57;;;;;;;18.42;3.63;;;8.70;99.90;;;;;;5063563;28;20473;-90
2023/12/11 09:23:24;;;;;;;15.95;4.30;;;8.70;99.90;;;;;;5058339;28;20128;-91
2023/12/11 09:25:50;;;;;;;21.55;4.10;;;8.70;99.90;;;;;;5068478;28;20546;-90
2023/12/11 09:28:17;;;;;;;24.50;3.38;;;8.70;99.90;;;;;;5068359;28;20385;-89
2023/12/11 09:30:44;;;;;;;22.27;4.75;;;8.70;99.90;;;;;;5064377;28;20076;-91
2023/12/11 09:33:11;;;;;;;23.33;6.32;;;8.70;99.90;;;;;;5081837;28;20080;-91
2023/12/11 09:35:37;;;;;;;27.42;9.38;;;8.70;99.90;;;;;;5068352;28;20033;-90
2023/12/11 09:38:04;;;;;;;24.13;8.35;;;8.70;99.90;;;;;;5066416;28;20041;-90
2023/12/11 09:40:31;;;;;;;28.80;9.00;;;8.70;99.90;;;;;;5073210;28;20045;-91
2023/12/11 09:43:02;;;;;;;24.08;9.15;;;8.70;99.90;;;;;;5084223;28;20040;-90
2023/12/11 09:45:29;;;;;;;23.17;8.40;;;8.70;99.90;;;;;;5077186;28;20062;-90
2023/12/11 09:47:58;;;;;;;20.17;5.35;;;8.70;99.90;;;;;;5062766;28;20126;-90
2023/12/11 09:50:25;;;;;;;21.30;4.65;;;8.70;99.90;;;;;;5073403;28;20094;-90
2023/12/11 09:52:53;;;;;;;18.08;3.22;;;8.80;99.90;;;;;;5074426;28;20045;-90
2023/12/11 09:55:19;;;;;;;18.58;2.80;;;8.90;99.90;;;;;;5074114;28;20079;-89
2023/12/11 09:57:47;;;;;;;15.05;3.10;;;8.80;99.90;;;;;;5072302;28;20036;-91
2023/12/11 10:00:14;;;;;;;13.50;3.30;;;8.80;99.90;;;;;;5057413;28;20041;-90
2023/12/11 10:02:42;;;;;;;12.95;2.58;;;8.90;99.90;;;;;;5063642;28;20033;-90
2023/12/11 10:05:11;;;;;;;8.90;2.17;;;8.90;99.90;;;;;;5068108;28;20076;-90
2023/12/11 10:07:41;;;;;;;11.50;2.20;;;8.90;99.90;;;;;;5066401;28;20120;-90
2023/12/11 10:10:18;;;;;;;13.93;2.20;;;8.90;99.90;;;;;;5073023;28;20040;-90
2023/12/11 10:12:45;;;;;;;12.75;2.60;;;8.90;99.90;;;;;;5070903;28;20068;-89
2023/12/11 10:15:19;;;;;;;15.02;2.78;;;8.90;99.90;;;;;;5070809;28;20442;-90
2023/12/11 10:18:05;;;;;;;11.73;2.50;;;8.80;99.90;;;;;;5071685;28;20037;-92
2023/12/11 10:20:32;;;;;;;;;;;8.90;99.90;;;;;;5073948;28;20076;-90
2023/12/11 10:23:14;;;;;;;15.23;2.90;;;9.00;99.90;;;;;;5057545;28;20648;-90
2023/12/11 10:25:43;;;;;;;16.05;2.60;;;9.00;99.90;;;;;;5073835;28;20100;-90
2023/12/11 10:28:14;;;;;;;11.48;2.60;;;9.00;99.90;;;;;;5066818;28;20124;-89
2023/12/11 10:30:55;;;;;;;12.73;2.70;;;9.00;99.90;;;;;;5072265;28;20041;-91
2023/12/11 10:33:24;;;;;;;11.90;2.63;;;9.10;99.90;;;;;;5069394;28;20037;-90
2023/12/11 10:35:51;;;;;;;12.88;2.90;;;9.10;99.90;;;;;;5065365;28;20112;-90
2023/12/11 10:38:26;;;;;;;12.60;2.65;;;9.00;99.90;;;;;;5090612;28;20041;-90
2023/12/11 10:40:56;;;;;;;11.98;2.38;;;9.10;99.90;;;;;;5066663;28;20037;-90
2023/12/11 10:43:23;;;;;;;12.07;2.20;;;9.10;99.90;;;;;;5067982;28;20079;-91
2023/12/11 10:45:49;;;;;;;13.40;2.63;;;9.10;99.90;;;;;;5070440;28;20072;-90
2023/12/11 10:48:17;;;;;;;12.35;2.33;;;9.10;99.90;;;;;;5074186;28;20052;-91
2023/12/11 10:50:44;;;;;;;17.00;2.60;;;9.10;99.90;;;;;;5072347;28;20041;-91
2023/12/11 10:53:12;;;;;;;12.23;2.55;;;9.20;99.90;;;;;;5077085;28;20517;-90
2023/12/11 10:55:38;;;;;;;15.90;2.30;;;9.50;99.90;;;;;;5073110;28;20097;-91
2023/12/11 10:58:08;;;;;;;14.43;2.78;;;9.10;99.90;;;;;;5071783;28;20025;-91
2023/12/11 11:00:36;;;;;;;13.07;2.35;;;10.00;99.90;;;;;;5067486;28;20037;-91
2023/12/11 11:03:06;;;;;;;16.05;1.98;;;9.10;99.90;;;;;;5063957;28;20106;-91
2023/12/11 11:05:34;;;;;;;18.25;2.00;;;9.10;99.90;;;;;;5069919;28;20500;-90
2023/12/11 11:08:12;;;;;;;12.45;1.85;;;9.40;99.90;;;;;;5072254;28;20120;-91
2023/12/11 11:10:47;;;;;;;16.63;2.55;;;9.10;99.90;;;;;;5076732;28;20048;-91
2023/12/11 11:13:21;;;;;;;12.68;1.45;;;8.50;99.90;;;;;;5068423;28;20112;-91
2023/12/11 11:15:54;;;;;;;8.98;1.65;;;9.00;99.90;;;;;;5073713;28;20098;-91
2023/12/11 11:18:24;;;;;;;13.27;1.80;;;9.40;99.90;;;;;;5073117;28;20033;-93
2023/12/11 11:21:13;;;;;;;11.38;1.85;;;9.10;99.90;;;;;;5060911;28;20043;-91
2023/12/11 11:23:45;;;;;;;10.93;1.70;;;8.90;99.90;;;;;;5061351;28;20041;-91
2023/12/11 11:26:35;;;;;;;9.98;2.05;;;9.50;99.90;;;;;;5071746;28;20045;-90
2023/12/11 11:29:03;;;;;;;13.75;1.92;;;9.10;99.90;;;;;;5069810;28;20422;-91
2023/12/11 11:31:51;;;;;;;10.55;2.47;;;10.00;99.90;;;;;;5064537;28;20058;-92
2023/12/11 11:34:39;;;;;;;15.27;2.30;;;9.40;99.90;;;;;;5079657;28;20041;-90
2023/12/11 11:37:07;;;;;;;19.00;2.33;;;9.20;99.90;;;;;;5069505;28;20076;-91
2023/12/11 11:39:59;;;;;;;20.73;2.55;;;9.30;99.90;;;;;;5064032;28;20042;-90
2023/12/11 11:42:27;;;;;;;15.10;2.20;;;9.20;99.90;;;;;;5072069;28;20042;-92
2023/12/11 11:44:56;;;;;;;16.63;2.15;;;9.10;99.90;;;;;;5058100;28;20106;-90
2023/12/11 11:47:26;;;;;;;14.43;2.45;;;9.10;99.90;;;;;;5063447;28;20049;-91
2023/12/11 11:49:54;;;;;;;18.38;2.72;;;9.10;99.90;;;;;;5059677;28;20060;-91
2023/12/11 11:52:28;;;;;;;15.70;2.30;;;9.30;99.90;;;;;;5071075;28;20036;-92
2023/12/11 11:55:06;;;;;;;14.88;2.15;;;10.00;99.90;;;;;;5053248;28;20047;-92
2023/12/11 11:57:33;;;;;;;16.98;2.50;;;9.10;99.90;;;;;;5061944;28;20104;-94
2023/12/11 12:00:00;;;;;;;13.38;2.10;;;9.10;99.90;;;;;;5062268;28;20045;-94
2023/12/11 12:02:27;;;;;;;12.57;1.63;;;9.10;99.90;;;;;;5071506;28;20933;-95
2023/12/11 12:04:53;;;;;;;9.57;1.73;;;9.10;99.90;;;;;;5071840;28;20080;-92
2023/12/11 12:07:22;;;;;;;15.70;2.10;;;9.80;99.90;;;;;;5071042;28;20489;-91
2023/12/11 12:09:52;;;;;;;13.35;1.85;;;9.10;99.90;;;;;;5065118;28;20051;-91
2023/12/11 12:12:19;;;;;;;9.25;1.60;;;10.10;99.90;;;;;;5065632;28;20033;-92
2023/12/11 12:14:45;;;;;;;7.72;1.40;;;9.80;99.90;;;;;;5068248;28;20063;-91
2023/12/11 12:17:12;;;;;;;7.72;1.40;;;9.80;99.90;;;;;;5068883;28;20037;-91
2023/12/11 12:19:39;;;;;;;8.85;1.77;;;9.00;99.90;;;;;;5067819;28;20124;-91
2023/12/11 12:22:09;;;;;;;7.63;1.25;;;9.00;99.90;;;;;;5064091;28;20083;-91
2023/12/11 12:24:40;;;;;;;7.97;1.55;;;9.70;99.90;;;;;;5071661;28;20181;-91
2023/12/11 12:27:11;;;;;;;11.82;1.50;;;8.90;99.90;;;;;;5066998;28;20052;-91
2023/12/11 12:29:40;;;;;;;10.13;1.40;;;8.90;99.90;;;;;;5071012;28;20139;-90
2023/12/11 12:32:08;;;;;;;9.80;1.52;;;9.30;99.90;;;;;;5054923;28;20102;-91
2023/12/11 12:34:37;;;;;;;8.63;1.17;;;9.60;99.90;;;;;;5056669;28;20824;-91
2023/12/11 12:37:05;;;;;;;12.00;1.67;;;9.60;99.90;;;;;;5077194;28;20056;-91
2023/12/11 12:39:32;;;;;;;8.93;1.55;;;8.90;99.90;;;;;;5061840;28;20034;-91
2023/12/11 12:42:00;;;;;;;6.53;1.27;;;9.60;99.90;;;;;;5080508;28;20518;-91
2023/12/11 12:44:26;;;;;;;10.38;1.50;;;9.00;99.90;;;;;;5067677;28;20045;-90
2023/12/11 12:46:58;;;;;;;8.45;1.38;;;8.90;99.90;;;;;;5067260;28;20052;-91
2023/12/11 12:49:25;;;;;;;9.63;1.45;;;9.00;99.90;;;;;;5079683;28;20049;-90
2023/12/11 12:51:55;;;;;;;9.35;1.00;;;9.40;99.90;;;;;;5075286;28;20037;-90